SBGR/GRU METAR and TAF weather

Enter ICAO airport designator
Station Type Date Time Source
SBGR METAR 2022/08/12 15:00 UTC NOAA

SBGR 121500Z 08010KT 9999 BKN030 18/10 Q1026


Station Type Date Time Source
SBGR Decoded METAR 2022/08/12 15:00 UTC NOAA

Guarulhos Civ / Mil , Brazil (SBGR) 23-26S 046-28W
Aug 12, 2022 - 11:00 AM EDT / 2022.08.12 1500 UTC
Wind: from the E (080 degrees) at 12 MPH (10 KT):0
Visibility: greater than 7 mile(s):0
Sky conditions: mostly cloudy
Temperature: 64 F (18 C)
Dew Point: 50 F (10 C)
Relative Humidity: 59%
Pressure (altimeter): 30.30 in. Hg (1026 hPa)
ob: SBGR 121500Z 08010KT 9999 BKN030 18/10 Q1026
cycle: 15

Station Type Date Time Source
SBGR TAF 2022/08/12 18:21 UTC NOAA

TAF TAF SBGR 121315Z 1218/1324 16008KT 8000 BKN020 TN10/1309Z TX23/1317Z
BECMG 1221/1223 15004KT BKN011
BECMG 1303/1305 10004KT
TEMPO 1308/1311 0700 FG BKN002
BECMG 1311/1313 07010KT
BECMG 1313/1315 FEW017
BECMG 1316/1318 06007KT FEW023
BECMG 1318/1320 12006KT
BECMG 1321/1323 12004KT
RMK PGM

Example: see airport list